createdAt,value
2022-11-03T00:01:17.089Z,67.44
2022-11-03T00:06:18.414Z,68.13
2022-11-03T00:11:19.682Z,68.88
2022-11-03T00:16:21.110Z,68.73
2022-11-03T00:21:22.491Z,67.99
2022-11-03T00:26:26.262Z,68.04
2022-11-03T00:31:29.874Z,68.73
2022-11-03T00:36:33.551Z,68.69
2022-11-03T00:41:34.924Z,69.28
2022-11-03T00:46:36.353Z,69.55
2022-11-03T00:51:37.656Z,69.65
2022-11-03T00:56:41.471Z,69.24
2022-11-03T01:01:47.137Z,69.94
2022-11-03T01:06:50.837Z,69.98
2022-11-03T01:12:10.194Z,69.94
2022-11-03T01:17:25.428Z,70.35
2022-11-03T01:22:26.727Z,70.80
2022-11-03T01:27:28.032Z,71.04
2022-11-03T01:32:29.359Z,71.38
2022-11-03T01:37:30.737Z,70.43
2022-11-03T01:42:32.085Z,70.75
2022-11-03T01:47:35.714Z,70.29
2022-11-03T01:52:55.018Z,70.27
2022-11-03T01:58:07.244Z,69.58
2022-11-03T02:03:09.429Z,70.47
2022-11-03T02:08:22.288Z,68.96
2022-11-03T02:13:27.292Z,69.68
2022-11-03T02:18:33.358Z,69.97
2022-11-03T02:23:43.408Z,71.05
2022-11-03T02:28:44.908Z,69.64
2022-11-03T02:33:58.524Z,70.02
2022-11-03T02:39:09.613Z,70.33
2022-11-03T02:44:17.155Z,70.29
2022-11-03T02:49:18.527Z,70.69
2022-11-03T02:54:25.912Z,69.77
2022-11-03T02:59:32.184Z,69.71
2022-11-03T03:04:40.617Z,70.96
2022-11-03T03:09:50.651Z,71.77
2022-11-03T03:14:54.530Z,69.97
2022-11-03T03:20:07.586Z,69.25
2022-11-03T03:25:16.333Z,70.44
2022-11-03T03:30:18.676Z,71.76
2022-11-03T03:35:25.057Z,71.92
2022-11-03T03:40:31.461Z,71.91
2022-11-03T03:45:35.084Z,72.49
2022-11-03T03:50:38.380Z,72.97
2022-11-03T03:55:45.161Z,73.16
2022-11-03T04:00:46.597Z,72.25
2022-11-03T04:05:48.389Z,71.50
2022-11-03T04:11:08.374Z,72.14
2022-11-03T04:16:28.193Z,72.28
2022-11-03T04:21:47.980Z,73.39
2022-11-03T04:26:49.357Z,74.08
2022-11-03T04:31:50.634Z,72.72
2022-11-03T04:36:52.009Z,72.99
2022-11-03T04:41:53.334Z,73.39
2022-11-03T04:46:54.621Z,73.38
2022-11-03T04:51:55.924Z,73.87
2022-11-03T04:56:57.196Z,74.42
2022-11-03T05:01:59.225Z,74.35
2022-11-03T05:07:00.650Z,73.99
2022-11-03T05:12:01.977Z,72.81
2022-11-03T05:17:15.450Z,72.74
2022-11-03T05:22:20.853Z,73.85
2022-11-03T05:27:22.577Z,74.46
2022-11-03T05:32:30.284Z,74.48
2022-11-03T05:37:33.341Z,74.60
2022-11-03T05:42:37.719Z,74.15
2022-11-03T05:47:40.317Z,74.24
2022-11-03T05:52:43.980Z,74.48
2022-11-03T05:57:45.489Z,75.17
2022-11-03T06:02:49.457Z,74.89
2022-11-03T06:07:54.164Z,75.19
2022-11-03T06:12:59.742Z,75.39
2022-11-03T06:18:12.786Z,74.82
2022-11-03T06:23:17.102Z,74.74
2022-11-03T06:28:22.626Z,74.83
2022-11-03T06:33:28.135Z,74.86
2022-11-03T06:38:31.606Z,74.96
2022-11-03T06:43:42.436Z,75.05
2022-11-03T06:48:45.184Z,74.60
2022-11-03T06:53:47.346Z,74.76
2022-11-03T06:58:52.017Z,73.90
2022-11-03T07:03:57.682Z,74.44
2022-11-03T07:09:01.304Z,74.74
2022-11-03T07:14:12.146Z,74.98
2022-11-03T07:19:25.001Z,73.52
2022-11-03T07:24:33.555Z,73.40
2022-11-03T07:29:34.846Z,73.10
2022-11-03T07:34:36.666Z,73.15
2022-11-03T07:39:38.707Z,72.54
2022-11-03T07:44:40.636Z,72.80
2022-11-03T07:49:42.624Z,72.11
2022-11-03T07:54:44.269Z,71.66
2022-11-03T07:59:48.845Z,71.03
2022-11-03T08:04:50.172Z,70.47
2022-11-03T08:09:52.391Z,70.75
2022-11-03T08:14:54.383Z,69.97
2022-11-03T08:19:55.771Z,70.47
2022-11-03T08:24:58.638Z,70.24
2022-11-03T08:30:00.259Z,70.94
2022-11-03T08:35:01.575Z,70.83
2022-11-03T08:40:07.440Z,70.15
2022-11-03T08:45:10.007Z,69.51
2022-11-03T08:50:11.385Z,68.73
2022-11-03T08:55:12.948Z,67.20
2022-11-03T09:00:16.962Z,66.30
2022-11-03T09:05:18.631Z,64.94
2022-11-03T09:10:22.247Z,62.85
2022-11-03T09:15:26.523Z,61.41
2022-11-03T09:20:27.827Z,59.11
2022-11-03T09:25:29.212Z,58.25
2022-11-03T09:30:30.960Z,58.20
2022-11-03T09:35:32.333Z,58.26
2022-11-03T09:40:35.694Z,55.85
2022-11-03T09:45:38.644Z,53.08
2022-11-03T09:50:40.069Z,50.89
2022-11-03T09:55:41.395Z,50.22
2022-11-03T10:00:43.397Z,51.10
2022-11-03T10:05:45.433Z,52.57
2022-11-03T10:10:46.885Z,53.29
2022-11-03T10:15:48.319Z,53.19
2022-11-03T10:20:49.718Z,49.24
2022-11-03T10:25:51.087Z,44.68
2022-11-03T10:31:10.544Z,42.40
2022-11-03T10:36:15.680Z,40.31
2022-11-03T10:41:26.051Z,45.20
2022-11-03T10:51:52.363Z,46.21
2022-11-03T10:56:53.847Z,44.07
2022-11-03T11:01:55.366Z,47.56
2022-11-03T11:06:56.817Z,50.41
2022-11-03T11:11:58.826Z,53.66
2022-11-03T11:17:01.677Z,54.40
2022-11-03T11:22:13.331Z,55.10
2022-11-03T11:27:31.709Z,55.96
2022-11-03T11:32:42.104Z,56.51
2022-11-03T11:37:44.129Z,56.46
2022-11-03T11:43:10.976Z,56.55
2022-11-03T11:48:19.243Z,57.74
2022-11-03T11:53:25.066Z,58.10
2022-11-03T11:58:33.126Z,58.80
2022-11-03T12:03:41.165Z,59.20
2022-11-03T12:08:43.201Z,59.88
2022-11-03T12:13:51.015Z,60.63
2022-11-03T12:18:52.759Z,60.50
2022-11-03T12:23:54.154Z,60.60
2022-11-03T12:28:55.696Z,60.25
2022-11-03T12:33:56.994Z,60.26
2022-11-03T12:38:58.278Z,59.77
2022-11-03T12:43:59.729Z,60.68
2022-11-03T12:49:01.074Z,60.14
2022-11-03T12:54:02.357Z,60.33
2022-11-03T12:59:03.930Z,60.45
2022-11-03T13:04:06.071Z,60.92
2022-11-03T13:09:07.429Z,61.19
2022-11-03T13:14:08.819Z,61.06
2022-11-03T13:19:10.717Z,61.86
2022-11-03T13:24:12.110Z,62.09
2022-11-03T13:29:13.406Z,62.17
2022-11-03T13:34:14.715Z,62.06
2022-11-03T13:39:16.363Z,62.25
2022-11-03T13:44:17.755Z,62.91
2022-11-03T13:50:07.671Z,62.97
2022-11-03T14:00:08.019Z,64.39
2022-11-03T14:05:11.684Z,64.75
2022-11-03T14:10:13.335Z,65.07
2022-11-03T14:15:14.687Z,64.90
2022-11-03T14:20:16.082Z,65.15
2022-11-03T14:25:20.055Z,65.14
2022-11-03T14:30:21.411Z,65.31
2022-11-03T14:35:23.726Z,65.31
2022-11-03T14:40:43.854Z,65.44
2022-11-03T14:45:45.181Z,66.02
2022-11-03T14:50:46.507Z,66.18
2022-11-03T14:55:47.782Z,66.23
2022-11-03T15:00:49.226Z,66.50
2022-11-03T15:05:54.263Z,66.96
2022-11-03T15:10:56.303Z,66.94
2022-11-03T15:15:57.980Z,67.04
2022-11-03T15:20:59.718Z,66.93
2022-11-03T15:26:02.476Z,67.13
2022-11-03T15:31:04.281Z,67.47
2022-11-03T15:36:07.384Z,67.59
2022-11-03T15:41:19.671Z,68.13
2022-11-03T15:46:21.279Z,67.92
2022-11-03T15:51:22.577Z,68.33
2022-11-03T15:56:23.864Z,68.28
2022-11-03T16:01:25.266Z,68.59
2022-11-03T16:06:46.549Z,68.76
2022-11-03T16:11:48.234Z,69.01
2022-11-03T16:16:49.526Z,69.28
2022-11-03T16:21:51.596Z,69.08
2022-11-03T16:26:52.944Z,68.74
2022-11-03T16:31:54.427Z,68.71
2022-11-03T16:36:56.220Z,69.27
2022-11-03T16:41:57.619Z,69.78
2022-11-03T16:46:58.902Z,69.95
2022-11-03T16:52:00.366Z,70.26
2022-11-03T16:57:01.754Z,70.74
2022-11-03T17:02:03.160Z,70.92
2022-11-03T17:07:04.623Z,70.73
2022-11-03T17:12:06.208Z,71.37
2022-11-03T17:17:07.656Z,71.87
2022-11-03T17:22:09.070Z,72.53
2022-11-03T17:27:14.987Z,73.35
2022-11-03T17:32:24.715Z,72.53
2022-11-03T17:37:26.902Z,72.36
2022-11-03T17:42:28.634Z,72.90
2022-11-03T17:47:31.617Z,73.62
2022-11-03T17:52:33.603Z,73.82
2022-11-03T17:57:35.633Z,74.38
2022-11-03T18:02:39.425Z,74.09
2022-11-03T18:07:42.732Z,74.29
2022-11-03T18:13:05.362Z,74.17
2022-11-03T18:18:13.874Z,75.38
2022-11-03T18:23:21.449Z,75.76
2022-11-03T18:28:22.841Z,75.89
2022-11-03T18:33:27.000Z,75.96
2022-11-03T18:38:28.595Z,76.18
2022-11-03T18:43:30.091Z,76.07
2022-11-03T18:48:31.784Z,75.90
2022-11-03T18:53:34.027Z,76.30
2022-11-03T18:58:35.411Z,76.78
2022-11-03T19:03:36.790Z,77.18
2022-11-03T19:08:38.109Z,78.21
2022-11-03T19:13:44.395Z,80.02
2022-11-03T19:18:46.036Z,80.69
2022-11-03T19:23:49.674Z,81.44
2022-11-03T19:29:00.022Z,83.15
2022-11-03T19:34:02.590Z,83.62
2022-11-03T19:39:14.435Z,83.59
2022-11-03T19:44:15.780Z,85.16
2022-11-03T19:49:17.114Z,84.16
2022-11-03T19:54:21.105Z,83.60
2022-11-03T19:59:22.466Z,84.27
2022-11-03T20:04:23.845Z,83.74
2022-11-03T20:14:29.433Z,85.60
2022-11-03T20:19:30.720Z,86.69
2022-11-03T20:24:32.514Z,87.78
2022-11-03T20:29:34.996Z,88.67
2022-11-03T20:34:37.033Z,88.86
2022-11-03T20:39:38.448Z,89.26
2022-11-03T20:44:39.927Z,89.39
2022-11-03T20:49:41.342Z,89.87
2022-11-03T20:54:46.114Z,90.19
2022-11-03T20:59:47.580Z,90.39
2022-11-03T21:04:48.960Z,90.51
2022-11-03T21:09:50.300Z,90.78
2022-11-03T21:15:10.051Z,91.17
2022-11-03T21:20:12.093Z,91.79
2022-11-03T21:25:15.974Z,92.22
2022-11-03T21:30:18.109Z,92.31
2022-11-03T21:35:21.480Z,92.56
2022-11-03T21:40:23.066Z,92.53
2022-11-03T21:45:24.893Z,92.72
2022-11-03T21:50:26.318Z,93.17
2022-11-03T21:55:28.852Z,93.66
2022-11-03T22:00:30.701Z,93.93
2022-11-03T22:05:32.235Z,94.91
2022-11-03T22:10:33.560Z,95.36
2022-11-03T22:15:53.724Z,97.36
2022-11-03T22:21:16.349Z,96.14
2022-11-03T22:26:36.345Z,97.30
2022-11-03T22:31:40.439Z,97.82
2022-11-03T22:36:41.768Z,98.37
2022-11-03T22:42:06.079Z,98.97
2022-11-03T22:47:08.557Z,100.00
2022-11-03T22:52:10.589Z,100.00
2022-11-03T22:57:13.076Z,100.00
2022-11-03T23:02:14.423Z,100.00
2022-11-03T23:07:15.813Z,100.00
2022-11-03T23:12:17.095Z,100.00
2022-11-03T23:17:18.354Z,100.00
2022-11-03T23:22:19.622Z,100.00
2022-11-03T23:27:20.906Z,100.00
2022-11-03T23:32:22.333Z,100.00
2022-11-03T23:37:23.672Z,100.00
2022-11-03T23:42:24.982Z,100.00
2022-11-03T23:47:45.243Z,100.00
2022-11-03T23:52:46.687Z,100.00
2022-11-03T23:58:07.055Z,100.00
